Groton New London Airport
KGON : now visible

Airfield :











YOU CAN JOIN US ON...

 
LOGIN :

Register | Disclaimer

   EN    FR    IT 

 









Legend :    VFR   Marginal VFR   IFR   Intensive IFR   Very Intensive IFR
Visi :
Ceiling :
>= 8 km
>= 3000ft
5 to 8 km
1000 to 3000 ft
1500m to 5 km
500 to 1000 ft
800 to 1500m
200 to 500 ft
< 800m
< 200 ft
Symbols :   Thunderstorms  Fog  Heavy snow  Heavy precipitations  Wind > 20 kt






- Airport Elevation : 9 ft
- IATA code : GON


KGON - Groton New London

CURRENT METAR :
  • 051056Z AUTO 05009KT 5SM RA BR FEW034 SCT043 OVC050 08/07 A2977 RMK AO2 SLP080 P0014 T00780067

EXPIRED METARs :
  • 050956Z AUTO 05005KT 5SM RA BR FEW033 SCT042 OVC055 08/07 A2980 RMK AO2 SLP091 P0010 T00780067
  • 050856Z AUTO 08005KT 9SM -RA OVC070 08/07 A2981 RMK AO2 SLP094 P0002 60006 T00780067 58028

TAF KGON
Valid from the 05 at 09:00 until the 06 at 06:00 UTC


050929Z 0509/0606 02005KT 6SM -RA BR OVC050
FM051000 04008KT 4SM -RA BR OVC015
FM051200 03011G16KT 3SM RA BR OVC007
FM051400 02015G22KT 3SM RA BR OVC007
FM051600 01019G28KT 3SM -RA BR OVC007 WS020/03050KT
FM052000 34021G31KT 1SM RASN BR OVC007 WS020/01060KT
TEMPO 0520/0522 1/2SM SN OVC005
FM052200 32020G30KT 3/4SM -SN BR OVC007 WS020/34050KT
FM060100 31019G31KT P6SM OVC040
FM060300 31016G29KT P6SM SCT190
KZBW FIR / North America



MET'MAP, your aeronautical weather chart ! - Copyright ORBIFLY December 2007 - Disclaimer

ORBIFLY MET'MAP TEAM :

Programming & Development : Alexandra Zaïnal
Concept & original design : Baudouin d'Aumeries
Assistance for programming : Marc-Olivier Méhu
Technical & hardware support : Manuel Goepfert

Contact : metmap@orbifly.com




SOURCES & CREDITS :

   NOAA       Earth
Advisory